Time;durP1;ratioP1;P1;durP2;ratioP2;P2;SDS_P1;SDS_P2;PMS_P1;PMS_P2;Temp;Humidity;BMP_temperature;BMP_pressure;BME280_temperature;BME280_humidity;BME280_pressure;Samples;Min_cycle;Max_cycle;Signal;HPM_P1;HPM_P2
2022/03/18 00:00:41;;;;;;;8.40;3.93;;;;;;;;;;5135530;27;20245;-85
2022/03/18 00:03:08;;;;;;;7.00;4.97;;;;;;;;;;5135714;27;20190;-85
2022/03/18 00:05:36;;;;;;;13.13;8.33;;;;;;;;;;5135520;27;20290;-85
2022/03/18 00:08:04;;;;;;;15.37;10.73;;;;;;;;;;5135517;27;20190;-85
2022/03/18 00:10:33;;;;;;;11.93;8.53;;;;;;;;;;5134073;27;20191;-87
2022/03/18 00:13:01;;;;;;;10.23;8.20;;;;;;;;;;5135431;27;20256;-84
2022/03/18 00:15:29;;;;;;;12.03;9.10;;;;;;;;;;5135530;27;20291;-84
2022/03/18 00:17:57;;;;;;;9.27;6.47;;;;;;;;;;5135491;27;20589;-84
2022/03/18 00:20:25;;;;;;;8.53;6.77;;;;;;;;;;5135095;27;20281;-84
2022/03/18 00:22:52;;;;;;;7.33;6.63;;;;;;;;;;5135394;27;20201;-84
2022/03/18 00:25:20;;;;;;;11.57;7.63;;;;;;;;;;5134988;27;20277;-84
2022/03/18 00:27:49;;;;;;;15.17;8.10;;;;;;;;;;5134985;27;20286;-84
2022/03/18 00:30:18;;;;;;;10.20;6.77;;;;;;;;;;5135263;27;20277;-84
2022/03/18 00:32:46;;;;;;;13.47;10.03;;;;;;;;;;5135094;27;20331;-84
2022/03/18 00:35:13;;;;;;;16.60;7.80;;;;;;;;;;5135027;27;20216;-84
2022/03/18 00:37:41;;;;;;;8.87;7.03;;;;;;;;;;5135236;27;20301;-83
2022/03/18 00:40:09;;;;;;;9.20;7.23;;;;;;;;;;5134853;27;20187;-83
2022/03/18 00:42:37;;;;;;;6.87;6.07;;;;;;;;;;5134922;27;20199;-84
2022/03/18 00:45:07;;;;;;;8.20;6.20;;;;;;;;;;5134574;27;20190;-84
2022/03/18 00:53:04;;;;;;;6.17;4.90;;;;;;;;;;5134869;27;20299;-85
2022/03/18 00:55:31;;;;;;;9.27;5.10;;;;;;;;;;5134382;27;20191;-83
2022/03/18 00:57:58;;;;;;;6.10;4.67;;;;;;;;;;5134173;27;20215;-82
2022/03/18 01:00:27;;;;;;;5.10;4.00;;;;;;;;;;5134334;27;20201;-83
2022/03/18 01:02:54;;;;;;;4.67;4.23;;;;;;;;;;5134399;27;20582;-82
2022/03/18 01:05:21;;;;;;;5.37;4.13;;;;;;;;;;5134474;27;20194;-82
2022/03/18 01:07:48;;;;;;;4.93;4.10;;;;;;;;;;5134268;27;20206;-82
2022/03/18 01:10:16;;;;;;;5.23;4.40;;;;;;;;;;5133909;27;20289;-82
2022/03/18 01:12:43;;;;;;;6.43;4.57;;;;;;;;;;5134607;27;20290;-82
2022/03/18 01:15:10;;;;;;;4.53;4.13;;;;;;;;;;5134362;27;20194;-82
2022/03/18 01:17:39;;;;;;;6.70;5.13;;;;;;;;;;5134126;27;20218;-81
2022/03/18 01:20:07;;;;;;;7.57;4.80;;;;;;;;;;5134101;27;20225;-84
2022/03/18 01:22:34;;;;;;;6.70;5.43;;;;;;;;;;5134215;27;20281;-84
2022/03/18 01:25:02;;;;;;;7.87;5.50;;;;;;;;;;5133946;27;20195;-84
2022/03/18 01:27:29;;;;;;;6.10;5.17;;;;;;;;;;5134442;27;20299;-84
2022/03/18 01:29:56;;;;;;;5.07;4.13;;;;;;;;;;5133755;27;20679;-83
2022/03/18 01:32:23;;;;;;;4.20;3.87;;;;;;;;;;5133735;27;20249;-84
2022/03/18 01:34:53;;;;;;;4.57;3.20;;;;;;;;;;5133919;27;20540;-84
2022/03/18 01:37:20;;;;;;;4.10;3.70;;;;;;;;;;5133725;27;20223;-84
2022/03/18 01:39:48;;;;;;;5.47;3.97;;;;;;;;;;5133472;27;20699;-83
2022/03/18 01:42:15;;;;;;;5.20;3.67;;;;;;;;;;5134030;27;20190;-83
2022/03/18 01:44:43;;;;;;;6.00;3.93;;;;;;;;;;5133537;27;20281;-84
2022/03/18 01:47:11;;;;;;;4.13;3.73;;;;;;;;;;5133626;27;20290;-84
2022/03/18 01:49:39;;;;;;;4.83;3.43;;;;;;;;;;5133353;27;20226;-84
2022/03/18 01:52:12;;;;;;;4.53;3.73;;;;;;;;;;5133604;27;20267;-84
2022/03/18 01:54:47;;;;;;;4.30;3.47;;;;;;;;;;5133305;27;20278;-84
2022/03/18 01:57:16;;;;;;;4.63;4.13;;;;;;;;;;5133742;27;20202;-84
2022/03/18 01:59:43;;;;;;;4.67;3.50;;;;;;;;;;5133568;27;20210;-84
2022/03/18 02:02:10;;;;;;;5.43;3.70;;;;;;;;;;5133210;27;20677;-84
2022/03/18 02:04:37;;;;;;;4.37;3.87;;;;;;;;;;5132726;27;20202;-84
2022/03/18 02:07:07;;;;;;;4.07;3.53;;;;;;;;;;5133327;27;20225;-84
2022/03/18 02:09:34;;;;;;;5.80;3.90;;;;;;;;;;5133162;27;20659;-84
2022/03/18 02:12:03;;;;;;;4.47;3.73;;;;;;;;;;5133396;27;20273;-84
2022/03/18 02:14:31;;;;;;;4.43;3.33;;;;;;;;;;5133283;27;20658;-84
2022/03/18 02:16:58;;;;;;;5.50;4.03;;;;;;;;;;5133025;27;20198;-84
2022/03/18 02:19:26;;;;;;;6.03;4.00;;;;;;;;;;5132889;27;20197;-83
2022/03/18 02:21:55;;;;;;;3.50;3.00;;;;;;;;;;5132950;27;20206;-83
2022/03/18 02:24:24;;;;;;;4.03;3.37;;;;;;;;;;5133241;27;20212;-83
2022/03/18 02:26:52;;;;;;;7.97;4.07;;;;;;;;;;5133012;27;20205;-83
2022/03/18 02:29:20;;;;;;;6.87;3.47;;;;;;;;;;5132725;27;20380;-84
2022/03/18 02:31:48;;;;;;;4.63;3.47;;;;;;;;;;5132698;27;20281;-84
2022/03/18 02:34:15;;;;;;;4.93;3.53;;;;;;;;;;5132636;27;20327;-84
2022/03/18 02:36:42;;;;;;;4.50;4.10;;;;;;;;;;5132881;27;20201;-84
2022/03/18 02:39:10;;;;;;;7.50;4.17;;;;;;;;;;5132583;27;20258;-84
2022/03/18 02:41:38;;;;;;;4.60;3.70;;;;;;;;;;5133196;27;20194;-84
2022/03/18 02:44:06;;;;;;;3.90;3.60;;;;;;;;;;5132732;27;20221;-83
2022/03/18 02:46:33;;;;;;;6.00;4.00;;;;;;;;;;5132725;27;20290;-84
2022/03/18 02:49:01;;;;;;;4.10;3.60;;;;;;;;;;5132523;27;20195;-83
2022/03/18 02:51:29;;;;;;;7.10;3.80;;;;;;;;;;5133014;27;20199;-83
2022/03/18 02:53:56;;;;;;;4.23;3.90;;;;;;;;;;5132439;27;20767;-83
2022/03/18 02:56:24;;;;;;;5.63;3.93;;;;;;;;;;5132583;27;20281;-83
2022/03/18 02:58:53;;;;;;;3.77;3.20;;;;;;;;;;5132577;27;20309;-83
2022/03/18 03:01:21;;;;;;;4.17;3.70;;;;;;;;;;5132350;27;20278;-83
2022/03/18 03:03:48;;;;;;;4.10;3.70;;;;;;;;;;5132627;27;20378;-84
2022/03/18 03:08:59;;;;;;;3.90;3.50;;;;;;;;;;5132451;28;20178;-83
2022/03/18 03:11:27;;;;;;;6.03;3.90;;;;;;;;;;5132158;27;20194;-83
2022/03/18 03:13:55;;;;;;;4.40;3.20;;;;;;;;;;5132695;27;20205;-82
2022/03/18 03:16:23;;;;;;;6.83;3.63;;;;;;;;;;5134771;27;20222;-83
2022/03/18 03:18:50;;;;;;;4.00;3.47;;;;;;;;;;5136288;27;20230;-83
2022/03/18 03:21:17;;;;;;;4.83;3.57;;;;;;;;;;5136280;27;20675;-82
2022/03/18 03:23:44;;;;;;;5.03;3.33;;;;;;;;;;5136693;27;20628;-83
2022/03/18 03:26:12;;;;;;;4.03;3.63;;;;;;;;;;5136135;27;20216;-83
2022/03/18 03:28:39;;;;;;;4.87;3.73;;;;;;;;;;5136458;27;20587;-84
2022/03/18 03:31:08;;;;;;;3.93;3.53;;;;;;;;;;5136094;27;20191;-83
2022/03/18 03:33:35;;;;;;;3.90;3.23;;;;;;;;;;5136203;27;20249;-82
2022/03/18 03:36:02;;;;;;;6.53;4.33;;;;;;;;;;5135909;27;20201;-82
2022/03/18 03:38:29;;;;;;;9.07;4.13;;;;;;;;;;5136049;27;20236;-82
2022/03/18 03:40:57;;;;;;;4.00;3.57;;;;;;;;;;5135986;27;20277;-82
2022/03/18 03:43:24;;;;;;;4.00;3.43;;;;;;;;;;5136043;27;20290;-82
2022/03/18 03:45:51;;;;;;;5.00;3.37;;;;;;;;;;5135866;27;20684;-82
2022/03/18 03:48:20;;;;;;;5.67;3.30;;;;;;;;;;5135998;27;20198;-82
2022/03/18 03:50:47;;;;;;;4.13;3.77;;;;;;;;;;5135692;27;20600;-82
2022/03/18 03:53:14;;;;;;;4.10;3.70;;;;;;;;;;5136154;27;20201;-82
2022/03/18 03:55:41;;;;;;;5.87;3.97;;;;;;;;;;5135552;27;20199;-82
2022/03/18 03:58:09;;;;;;;4.60;3.80;;;;;;;;;;5135965;27;20544;-82
2022/03/18 04:00:37;;;;;;;4.07;3.73;;;;;;;;;;5135375;27;20278;-82
2022/03/18 04:03:05;;;;;;;4.40;3.67;;;;;;;;;;5135952;27;20454;-83
2022/03/18 04:05:34;;;;;;;5.90;3.97;;;;;;;;;;5135594;27;20660;-82
2022/03/18 04:08:02;;;;;;;4.90;3.63;;;;;;;;;;5135661;27;20254;-82
2022/03/18 04:10:29;;;;;;;4.50;3.33;;;;;;;;;;5135401;27;20199;-82
2022/03/18 04:12:56;;;;;;;4.57;3.23;;;;;;;;;;5135532;27;20195;-82
2022/03/18 04:15:24;;;;;;;4.57;3.63;;;;;;;;;;5133100;27;20444;-83
2022/03/18 04:17:52;;;;;;;4.83;3.90;;;;;;;;;;5134990;27;20218;-83
2022/03/18 04:20:21;;;;;;;4.93;3.43;;;;;;;;;;5135033;27;20398;-84
2022/03/18 04:22:50;;;;;;;3.80;3.50;;;;;;;;;;5135164;27;20201;-84
2022/03/18 04:25:17;;;;;;;4.03;3.47;;;;;;;;;;5133924;27;20895;-83
2022/03/18 04:27:44;;;;;;;3.93;3.50;;;;;;;;;;5133752;27;20207;-81
2022/03/18 04:30:13;;;;;;;4.10;3.53;;;;;;;;;;5133973;27;20952;-81
2022/03/18 04:32:40;;;;;;;4.30;3.73;;;;;;;;;;5133763;27;21017;-81
2022/03/18 04:35:11;;;;;;;4.40;3.80;;;;;;;;;;5133875;27;20535;-81
2022/03/18 04:37:40;;;;;;;5.13;3.80;;;;;;;;;;5133781;27;20175;-81
2022/03/18 04:40:11;;;;;;;3.60;3.30;;;;;;;;;;5133925;27;20459;-81
2022/03/18 04:42:39;;;;;;;5.07;3.47;;;;;;;;;;5133800;27;20186;-81
2022/03/18 04:45:07;;;;;;;6.77;3.23;;;;;;;;;;5133746;27;20440;-81
2022/03/18 04:47:35;;;;;;;4.87;3.27;;;;;;;;;;5133681;27;20427;-81
2022/03/18 04:50:02;;;;;;;4.60;4.20;;;;;;;;;;5133186;27;20233;-81
2022/03/18 04:52:29;;;;;;;5.63;3.83;;;;;;;;;;5133873;27;20198;-81
2022/03/18 04:54:57;;;;;;;5.43;4.07;;;;;;;;;;5133489;27;20197;-81
2022/03/18 04:57:25;;;;;;;5.37;4.07;;;;;;;;;;5127385;27;20480;-82
2022/03/18 04:59:54;;;;;;;3.77;3.30;;;;;;;;;;5112906;28;20223;-82
2022/03/18 05:02:21;;;;;;;5.77;3.47;;;;;;;;;;5112827;28;20726;-82
2022/03/18 05:04:49;;;;;;;4.00;3.60;;;;;;;;;;5112750;28;20449;-83
2022/03/18 05:07:17;;;;;;;6.53;3.73;;;;;;;;;;5112636;28;20449;-83
2022/03/18 05:09:46;;;;;;;6.23;3.40;;;;;;;;;;5112789;28;20199;-83
2022/03/18 05:12:15;;;;;;;6.97;3.57;;;;;;;;;;5112637;28;20441;-83
2022/03/18 05:14:43;;;;;;;6.80;3.97;;;;;;;;;;5112857;28;20199;-81
2022/03/18 05:17:11;;;;;;;4.90;4.10;;;;;;;;;;5112463;28;20437;-83
2022/03/18 05:19:39;;;;;;;6.40;4.80;;;;;;;;;;5112508;28;20703;-82
2022/03/18 05:22:07;;;;;;;4.90;3.60;;;;;;;;;;5112412;28;20445;-83
2022/03/18 05:24:34;;;;;;;4.87;4.27;;;;;;;;;;5112562;28;20199;-82
2022/03/18 05:27:03;;;;;;;5.53;4.27;;;;;;;;;;5112525;28;20584;-81
2022/03/18 05:29:30;;;;;;;6.30;4.30;;;;;;;;;;5112506;28;20187;-82
2022/03/18 05:31:59;;;;;;;4.80;4.07;;;;;;;;;;5112180;28;20195;-82
2022/03/18 05:34:27;;;;;;;5.03;4.33;;;;;;;;;;5112097;28;20723;-82
2022/03/18 05:36:54;;;;;;;6.67;4.20;;;;;;;;;;5112252;28;20200;-83
2022/03/18 05:39:21;;;;;;;5.37;4.80;;;;;;;;;;5119538;27;20214;-81
2022/03/18 05:41:48;;;;;;;5.07;4.03;;;;;;;;;;5132525;27;20598;-81
2022/03/18 05:44:15;;;;;;;5.47;4.33;;;;;;;;;;5131781;27;20280;-81
2022/03/18 05:46:43;;;;;;;3.70;3.40;;;;;;;;;;5132561;27;20531;-81
2022/03/18 05:49:11;;;;;;;7.37;4.17;;;;;;;;;;5133296;27;20281;-81
2022/03/18 05:51:39;;;;;;;4.30;3.90;;;;;;;;;;5133563;27;20644;-81
2022/03/18 05:54:06;;;;;;;4.27;3.87;;;;;;;;;;5133447;27;20197;-81
2022/03/18 05:59:17;;;;;;;5.13;4.63;;;;;;;;;;5133297;27;20343;-81
2022/03/18 06:01:45;;;;;;;4.00;3.63;;;;;;;;;;5133355;27;20202;-82
2022/03/18 06:04:14;;;;;;;7.67;4.63;;;;;;;;;;5133128;27;20281;-82
2022/03/18 06:06:42;;;;;;;6.57;3.53;;;;;;;;;;5133070;27;20547;-82
2022/03/18 06:11:54;;;;;;;7.23;4.07;;;;;;;;;;5133396;27;20197;-83
2022/03/18 06:14:23;;;;;;;4.93;4.50;;;;;;;;;;5132824;27;20190;-83
2022/03/18 06:16:51;;;;;;;6.07;4.30;;;;;;;;;;5133183;27;20206;-83
2022/03/18 06:19:21;;;;;;;6.83;4.13;;;;;;;;;;5132965;27;20264;-83
2022/03/18 06:21:48;;;;;;;5.03;4.40;;;;;;;;;;5133379;27;20199;-83
2022/03/18 06:24:16;;;;;;;5.00;4.37;;;;;;;;;;5132748;27;20281;-83
2022/03/18 06:26:44;;;;;;;4.77;4.27;;;;;;;;;;5132971;27;20198;-83
2022/03/18 06:29:12;;;;;;;3.90;3.53;;;;;;;;;;5132899;27;20289;-84
2022/03/18 06:31:40;;;;;;;5.27;3.93;;;;;;;;;;5132823;27;20286;-83
2022/03/18 06:34:07;;;;;;;5.33;4.67;;;;;;;;;;5132853;27;20234;-83
2022/03/18 06:36:36;;;;;;;24.37;15.10;;;;;;;;;;5133214;27;20577;-83
2022/03/18 06:39:04;;;;;;;21.83;16.00;;;;;;;;;;5132497;28;20765;-83
2022/03/18 06:41:31;;;;;;;12.80;8.87;;;;;;;;;;5133086;27;20578;-82
2022/03/18 06:43:59;;;;;;;9.67;8.67;;;;;;;;;;5132707;27;20197;-83
2022/03/18 06:46:26;;;;;;;10.07;7.97;;;;;;;;;;5132773;27;20771;-83
2022/03/18 06:48:54;;;;;;;10.07;7.53;;;;;;;;;;5132665;27;20197;-82
2022/03/18 06:51:21;;;;;;;9.60;5.87;;;;;;;;;;5136721;27;20198;-83
2022/03/18 06:53:50;;;;;;;10.23;7.77;;;;;;;;;;5137344;27;20201;-82
2022/03/18 06:56:17;;;;;;;9.63;7.83;;;;;;;;;;5137105;27;20610;-82
2022/03/18 06:58:45;;;;;;;7.07;6.27;;;;;;;;;;5136594;27;20313;-83
2022/03/18 07:01:12;;;;;;;8.33;6.27;;;;;;;;;;5137058;27;20198;-83
2022/03/18 07:03:39;;;;;;;6.50;5.03;;;;;;;;;;5136831;27;20663;-83
2022/03/18 07:06:07;;;;;;;6.57;5.43;;;;;;;;;;5136506;27;20675;-83
2022/03/18 07:08:34;;;;;;;7.90;5.90;;;;;;;;;;5136539;27;20667;-83
2022/03/18 07:11:03;;;;;;;5.83;5.23;;;;;;;;;;5136589;27;20643;-83
2022/03/18 07:13:31;;;;;;;9.30;6.70;;;;;;;;;;5136983;27;20278;-83
2022/03/18 07:17:54;;;;;;;5.47;4.97;;;;;;;;;;5136816;27;20226;-84
2022/03/18 07:18:45;;;;;;;5.70;5.10;;;;;;;;;;5136546;27;20670;-84
2022/03/18 07:21:12;;;;;;;6.47;5.60;;;;;;;;;;5136347;27;20202;-84
2022/03/18 07:23:40;;;;;;;6.13;4.57;;;;;;;;;;5136547;27;20285;-84
2022/03/18 07:26:09;;;;;;;5.73;4.67;;;;;;;;;;5136477;27;20289;-84
2022/03/18 07:28:36;;;;;;;4.60;4.20;;;;;;;;;;5136146;27;20289;-84
2022/03/18 07:31:03;;;;;;;5.17;4.60;;;;;;;;;;5136096;27;20233;-84
2022/03/18 07:33:31;;;;;;;5.10;4.60;;;;;;;;;;5136067;27;20321;-84
2022/03/18 07:35:58;;;;;;;5.03;4.57;;;;;;;;;;5135956;27;20194;-85
2022/03/18 07:38:25;;;;;;;4.57;3.97;;;;;;;;;;5136297;27;20199;-84
2022/03/18 07:40:52;;;;;;;5.20;4.37;;;;;;;;;;5135977;27;20233;-84
2022/03/18 07:43:21;;;;;;;8.00;5.67;;;;;;;;;;5136064;27;20290;-84
2022/03/18 07:45:48;;;;;;;4.90;4.40;;;;;;;;;;5136052;27;20256;-84
2022/03/18 07:48:16;;;;;;;8.57;5.90;;;;;;;;;;5135411;27;20294;-84
2022/03/18 07:50:43;;;;;;;6.20;5.57;;;;;;;;;;5134535;27;20201;-84
2022/03/18 07:53:10;;;;;;;5.87;5.27;;;;;;;;;;5135839;27;20199;-84
2022/03/18 07:55:40;;;;;;;12.47;11.23;;;;;;;;;;5135428;27;20195;-84
2022/03/18 07:58:07;;;;;;;5.63;4.97;;;;;;;;;;5135907;27;20195;-84
2022/03/18 08:00:36;;;;;;;6.43;5.47;;;;;;;;;;5135288;27;20278;-84
2022/03/18 08:03:04;;;;;;;7.20;6.50;;;;;;;;;;5135213;27;20293;-84
2022/03/18 08:05:32;;;;;;;7.90;4.80;;;;;;;;;;5135605;27;20616;-84
2022/03/18 08:07:59;;;;;;;4.57;4.17;;;;;;;;;;5135601;27;20195;-84
2022/03/18 08:10:27;;;;;;;3.97;3.60;;;;;;;;;;5135479;27;20713;-85
2022/03/18 08:12:55;;;;;;;4.57;3.87;;;;;;;;;;5135343;27;20198;-84
2022/03/18 08:15:22;;;;;;;7.73;4.13;;;;;;;;;;5135316;27;20264;-84
2022/03/18 08:17:52;;;;;;;3.83;3.53;;;;;;;;;;5135434;27;20290;-84
2022/03/18 08:20:19;;;;;;;3.93;3.53;;;;;;;;;;5135335;27;20221;-84
2022/03/18 08:22:47;;;;;;;3.60;3.27;;;;;;;;;;5135349;27;20650;-85
2022/03/18 08:25:15;;;;;;;4.93;3.83;;;;;;;;;;5135256;27;20620;-84
2022/03/18 08:27:42;;;;;;;3.57;3.13;;;;;;;;;;5135206;27;20205;-83
2022/03/18 08:30:11;;;;;;;4.67;4.17;;;;;;;;;;5134998;27;20202;-84
2022/03/18 08:32:38;;;;;;;3.87;3.57;;;;;;;;;;5135004;27;20265;-84
2022/03/18 08:35:08;;;;;;;5.80;3.87;;;;;;;;;;5135065;27;20529;-83
2022/03/18 08:40:22;;;;;;;5.50;4.30;;;;;;;;;;5131358;27;20225;-84
2022/03/18 08:42:50;;;;;;;4.30;3.90;;;;;;;;;;5134945;27;20237;-84
2022/03/18 08:45:18;;;;;;;6.80;3.93;;;;;;;;;;5134788;27;20697;-84
2022/03/18 08:47:45;;;;;;;5.87;4.67;;;;;;;;;;5134768;27;20285;-84
2022/03/18 08:50:15;;;;;;;5.53;4.33;;;;;;;;;;5134955;27;20579;-84
2022/03/18 08:52:42;;;;;;;7.00;5.33;;;;;;;;;;5134774;27;20194;-83
2022/03/18 08:55:10;;;;;;;6.73;4.53;;;;;;;;;;5134539;27;20569;-85
2022/03/18 08:57:37;;;;;;;4.30;3.90;;;;;;;;;;5134399;27;20682;-84
2022/03/18 09:00:07;;;;;;;3.93;3.53;;;;;;;;;;5134428;27;20222;-84
2022/03/18 09:02:35;;;;;;;4.77;4.10;;;;;;;;;;5134587;27;20202;-84
2022/03/18 09:05:03;;;;;;;6.10;5.03;;;;;;;;;;5134686;27;20275;-84
2022/03/18 09:07:32;;;;;;;5.97;3.70;;;;;;;;;;5134327;27;20195;-84
2022/03/18 09:09:59;;;;;;;7.00;5.70;;;;;;;;;;5134264;27;20222;-84
2022/03/18 09:12:27;;;;;;;4.30;3.90;;;;;;;;;;5134186;27;20576;-84
2022/03/18 09:14:54;;;;;;;4.70;3.63;;;;;;;;;;5133592;27;20693;-84
2022/03/18 09:17:21;;;;;;;5.27;4.60;;;;;;;;;;5134004;27;20195;-84
2022/03/18 09:19:49;;;;;;;7.90;6.73;;;;;;;;;;5133948;27;20214;-84
2022/03/18 09:22:16;;;;;;;6.13;4.57;;;;;;;;;;5134131;27;20285;-85
2022/03/18 09:24:46;;;;;;;5.80;4.13;;;;;;;;;;5134014;27;20203;-85
2022/03/18 09:27:14;;;;;;;3.87;3.30;;;;;;;;;;5134102;27;20286;-85
2022/03/18 09:29:41;;;;;;;6.87;3.60;;;;;;;;;;5133989;27;20202;-85
2022/03/18 09:32:09;;;;;;;12.50;7.87;;;;;;;;;;5133863;27;20206;-85
2022/03/18 09:34:37;;;;;;;5.00;3.07;;;;;;;;;;5134110;27;20179;-85
2022/03/18 09:37:05;;;;;;;3.07;2.77;;;;;;;;;;5133755;27;20278;-85
2022/03/18 09:39:32;;;;;;;4.50;3.37;;;;;;;;;;5133805;27;20981;-85
2022/03/18 09:42:01;;;;;;;2.90;2.70;;;;;;;;;;5133832;27;20195;-84
2022/03/18 09:44:34;;;;;;;4.00;3.60;;;;;;;;;;5133984;27;20669;-85
2022/03/18 09:47:02;;;;;;;3.00;2.80;;;;;;;;;;5133620;27;20183;-85
2022/03/18 09:49:30;;;;;;;4.80;3.33;;;;;;;;;;5133913;27;20195;-85
2022/03/18 09:51:57;;;;;;;4.30;3.30;;;;;;;;;;5133930;27;20570;-85
2022/03/18 09:54:25;;;;;;;3.80;3.37;;;;;;;;;;5133554;27;20677;-84
2022/03/18 09:56:53;;;;;;;4.53;3.53;;;;;;;;;;5133515;27;20211;-85
2022/03/18 09:59:23;;;;;;;3.37;3.07;;;;;;;;;;5133231;27;20195;-85
2022/03/18 10:01:51;;;;;;;8.27;4.20;;;;;;;;;;5134108;27;20572;-85
2022/03/18 10:04:18;;;;;;;3.77;3.27;;;;;;;;;;5133263;27;20238;-85
2022/03/18 10:06:45;;;;;;;4.00;3.60;;;;;;;;;;5133643;27;20594;-85
2022/03/18 10:09:13;;;;;;;3.80;3.40;;;;;;;;;;5133036;27;20243;-85
2022/03/18 10:11:43;;;;;;;3.67;3.33;;;;;;;;;;5133415;27;20199;-85
2022/03/18 10:14:11;;;;;;;4.07;3.13;;;;;;;;;;5133145;27;20232;-85
2022/03/18 10:16:41;;;;;;;3.60;3.10;;;;;;;;;;5133127;27;20194;-86
2022/03/18 10:19:11;;;;;;;5.23;3.70;;;;;;;;;;5133731;27;20222;-85
2022/03/18 10:21:51;;;;;;;2.90;2.70;;;;;;;;;;5132881;27;20314;-85
2022/03/18 10:24:20;;;;;;;4.53;3.40;;;;;;;;;;5133105;27;20186;-85
2022/03/18 10:26:49;;;;;;;8.00;4.10;;;;;;;;;;5133115;27;20198;-85
2022/03/18 10:29:17;;;;;;;5.33;3.97;;;;;;;;;;5133080;27;20203;-85
2022/03/18 10:32:00;;;;;;;5.60;4.23;;;;;;;;;;5133026;27;20234;-85
2022/03/18 10:37:22;;;;;;;4.63;3.60;;;;;;;;;;5133151;27;20183;-85
2022/03/18 10:39:50;;;;;;;5.87;3.80;;;;;;;;;;5132918;27;20311;-85
2022/03/18 10:42:19;;;;;;;4.97;3.77;;;;;;;;;;5133209;27;20251;-85
2022/03/18 10:44:48;;;;;;;5.63;3.97;;;;;;;;;;5132782;27;20230;-85
2022/03/18 10:47:27;;;;;;;5.20;3.83;;;;;;;;;;5132866;27;20187;-85
2022/03/18 10:49:59;;;;;;;4.20;3.80;;;;;;;;;;5132442;27;20193;-85
2022/03/18 10:52:28;;;;;;;3.90;3.50;;;;;;;;;;5133208;27;20269;-84
2022/03/18 10:54:56;;;;;;;4.70;4.10;;;;;;;;;;5132569;27;20690;-85
2022/03/18 10:57:23;;;;;;;5.80;3.87;;;;;;;;;;5132466;27;20689;-84
2022/03/18 10:59:50;;;;;;;5.60;3.83;;;;;;;;;;5132558;27;20226;-85
2022/03/18 11:02:18;;;;;;;4.27;3.73;;;;;;;;;;5132717;27;20206;-85
2022/03/18 11:04:47;;;;;;;6.33;4.10;;;;;;;;;;5132648;27;20195;-85
2022/03/18 11:07:34;;;;;;;4.77;3.97;;;;;;;;;;5132706;27;20191;-85
2022/03/18 11:12:47;;;;;;;4.33;3.93;;;;;;;;;;5132975;28;20611;-85
2022/03/18 11:15:16;;;;;;;3.93;3.37;;;;;;;;;;5132503;27;20285;-85
2022/03/18 11:17:44;;;;;;;6.37;4.60;;;;;;;;;;5132503;27;20195;-85
2022/03/18 11:20:13;;;;;;;4.80;4.30;;;;;;;;;;5132309;27;20275;-85
2022/03/18 11:22:40;;;;;;;4.60;4.20;;;;;;;;;;5132559;27;20199;-85
2022/03/18 11:25:10;;;;;;;4.27;3.87;;;;;;;;;;5132278;27;20195;-85
2022/03/18 11:27:39;;;;;;;5.13;3.70;;;;;;;;;;5132297;27;20191;-85
2022/03/18 11:30:25;;;;;;;6.70;3.50;;;;;;;;;;5132618;27;20195;-85
2022/03/18 11:33:21;;;;;;;4.27;3.93;;;;;;;;;;5132528;27;20237;-84
2022/03/18 11:36:09;;;;;;;4.00;3.63;;;;;;;;;;5132576;27;20214;-84
2022/03/18 11:38:57;;;;;;;4.27;3.80;;;;;;;;;;5136099;27;20273;-85
2022/03/18 11:41:29;;;;;;;3.70;3.40;;;;;;;;;;5136054;27;20678;-85
2022/03/18 11:43:56;;;;;;;4.87;3.77;;;;;;;;;;5136176;27;20274;-84
2022/03/18 11:46:25;;;;;;;5.87;3.80;;;;;;;;;;5136115;27;20655;-85
2022/03/18 11:48:54;;;;;;;4.47;3.63;;;;;;;;;;5136285;27;20202;-84
2022/03/18 11:51:30;;;;;;;3.70;3.40;;;;;;;;;;5135896;27;20245;-84
2022/03/18 11:53:59;;;;;;;4.93;3.60;;;;;;;;;;5135917;27;20277;-84
2022/03/18 11:56:43;;;;;;;3.53;3.23;;;;;;;;;;5135967;27;20267;-85
2022/03/18 11:59:47;;;;;;;5.27;3.60;;;;;;;;;;5136163;27;20187;-84
2022/03/18 12:02:15;;;;;;;3.97;3.57;;;;;;;;;;5136192;27;20265;-84
2022/03/18 12:04:44;;;;;;;7.67;5.70;;;;;;;;;;5135513;27;20281;-85
2022/03/18 12:07:18;;;;;;;9.70;6.77;;;;;;;;;;5135473;27;20194;-85
2022/03/18 12:09:49;;;;;;;4.23;3.83;;;;;;;;;;5135433;27;20194;-84
2022/03/18 12:12:17;;;;;;;4.27;3.10;;;;;;;;;;5135992;27;20290;-85
2022/03/18 12:14:45;;;;;;;5.57;3.53;;;;;;;;;;5135724;27;20583;-85
2022/03/18 12:17:12;;;;;;;4.90;3.90;;;;;;;;;;5135573;27;20197;-85
2022/03/18 12:19:39;;;;;;;4.67;4.20;;;;;;;;;;5135072;27;20242;-84
2022/03/18 12:22:07;;;;;;;3.70;3.40;;;;;;;;;;5135287;27;20214;-84
2022/03/18 12:24:39;;;;;;;3.70;3.40;;;;;;;;;;5135266;27;20197;-84
2022/03/18 12:27:06;;;;;;;5.73;3.90;;;;;;;;;;5135293;27;20183;-84
2022/03/18 12:29:34;;;;;;;4.47;3.93;;;;;;;;;;5134960;27;20611;-84
2022/03/18 12:32:05;;;;;;;6.37;4.10;;;;;;;;;;5135235;27;20230;-85
2022/03/18 12:34:34;;;;;;;4.50;4.07;;;;;;;;;;5134961;27;20289;-84
2022/03/18 12:37:03;;;;;;;4.90;3.70;;;;;;;;;;5134813;27;20255;-84
2022/03/18 12:39:31;;;;;;;4.10;3.70;;;;;;;;;;5134849;27;20191;-84
2022/03/18 12:42:11;;;;;;;4.20;3.57;;;;;;;;;;5134904;27;20219;-85
2022/03/18 12:44:38;;;;;;;4.00;3.60;;;;;;;;;;5134922;27;20235;-85
2022/03/18 12:47:06;;;;;;;3.67;3.27;;;;;;;;;;5134662;27;20668;-84
2022/03/18 12:49:35;;;;;;;5.17;3.07;;;;;;;;;;5134701;27;20285;-84
2022/03/18 12:52:03;;;;;;;3.73;3.33;;;;;;;;;;5135123;27;20640;-84
2022/03/18 12:54:30;;;;;;;5.20;3.67;;;;;;;;;;5134383;27;20209;-84
2022/03/18 12:56:58;;;;;;;4.63;3.90;;;;;;;;;;5135103;27;20203;-84
2022/03/18 12:59:26;;;;;;;4.63;4.23;;;;;;;;;;5134470;27;20201;-84
2022/03/18 13:01:55;;;;;;;5.10;4.33;;;;;;;;;;5134445;27;20226;-84
2022/03/18 13:04:22;;;;;;;6.53;4.20;;;;;;;;;;5134517;27;20643;-83
2022/03/18 13:06:57;;;;;;;5.80;4.40;;;;;;;;;;5134466;27;20195;-84
2022/03/18 13:09:25;;;;;;;3.83;3.37;;;;;;;;;;5134644;27;20186;-84
2022/03/18 13:11:52;;;;;;;4.13;3.67;;;;;;;;;;5134497;27;20289;-84
2022/03/18 13:14:36;;;;;;;4.53;3.90;;;;;;;;;;5134493;27;20739;-84
2022/03/18 13:17:04;;;;;;;5.57;5.07;;;;;;;;;;5134293;27;20220;-84
2022/03/18 13:19:38;;;;;;;4.90;4.50;;;;;;;;;;5133732;27;20286;-84
2022/03/18 13:22:06;;;;;;;5.97;4.10;;;;;;;;;;5134366;27;20237;-84
2022/03/18 13:24:33;;;;;;;5.07;4.00;;;;;;;;;;5133800;27;20729;-84
2022/03/18 13:27:01;;;;;;;4.57;4.17;;;;;;;;;;5134480;27;20194;-84
2022/03/18 13:34:56;;;;;;;5.47;4.80;;;;;;;;;;5133995;27;20558;-84
2022/03/18 13:37:23;;;;;;;7.60;4.27;;;;;;;;;;5133711;27;20195;-84
2022/03/18 13:39:51;;;;;;;6.30;4.33;;;;;;;;;;5134332;27;20273;-85
2022/03/18 13:42:23;;;;;;;6.20;5.40;;;;;;;;;;5133762;27;20233;-84
2022/03/18 13:44:51;;;;;;;7.57;4.40;;;;;;;;;;5133646;27;20225;-84
2022/03/18 13:47:19;;;;;;;5.17;4.63;;;;;;;;;;5133739;27;20195;-84
2022/03/18 13:49:54;;;;;;;4.03;3.63;;;;;;;;;;5133862;27;20634;-84
2022/03/18 13:52:32;;;;;;;4.50;3.87;;;;;;;;;;5133453;27;20280;-84
2022/03/18 13:55:00;;;;;;;3.87;3.57;;;;;;;;;;5133600;27;20183;-84
2022/03/18 13:57:27;;;;;;;4.73;3.30;;;;;;;;;;5133603;27;20191;-84
2022/03/18 13:59:55;;;;;;;4.23;3.70;;;;;;;;;;5132807;27;20282;-84
2022/03/18 14:02:25;;;;;;;4.20;3.60;;;;;;;;;;5133768;27;20226;-84
2022/03/18 14:04:55;;;;;;;4.20;3.80;;;;;;;;;;5133262;27;20201;-84
2022/03/18 14:07:24;;;;;;;4.90;4.37;;;;;;;;;;5133661;27;20199;-84
2022/03/18 14:09:59;;;;;;;5.10;3.80;;;;;;;;;;5133491;27;20263;-84
2022/03/18 14:12:28;;;;;;;4.77;4.20;;;;;;;;;;5133121;27;20278;-84
2022/03/18 14:15:14;;;;;;;4.80;4.30;;;;;;;;;;5133176;27;20673;-84
2022/03/18 14:17:59;;;;;;;3.87;3.20;;;;;;;;;;5133307;27;20182;-84
2022/03/18 14:20:28;;;;;;;4.90;4.40;;;;;;;;;;5133316;27;20258;-84
2022/03/18 14:22:57;;;;;;;4.70;4.00;;;;;;;;;;5133239;27;20247;-84
2022/03/18 14:25:29;;;;;;;4.30;3.33;;;;;;;;;;5132890;27;20209;-84
2022/03/18 14:27:56;;;;;;;3.93;3.50;;;;;;;;;;5133436;27;20204;-84
2022/03/18 14:30:26;;;;;;;4.67;4.23;;;;;;;;;;5132857;27;20663;-84
2022/03/18 14:32:55;;;;;;;5.67;4.97;;;;;;;;;;5132638;27;20236;-84
2022/03/18 14:35:24;;;;;;;6.57;5.37;;;;;;;;;;5132847;27;20278;-84
2022/03/18 14:37:51;;;;;;;5.67;4.30;;;;;;;;;;5132952;27;20277;-84
2022/03/18 14:40:20;;;;;;;4.67;3.90;;;;;;;;;;5132474;27;20287;-84
2022/03/18 14:42:48;;;;;;;5.03;3.83;;;;;;;;;;5132785;27;20263;-85
2022/03/18 14:45:17;;;;;;;5.10;3.90;;;;;;;;;;5132950;27;20190;-84
2022/03/18 14:47:46;;;;;;;4.17;3.77;;;;;;;;;;5132766;27;20230;-84
2022/03/18 14:50:14;;;;;;;6.70;5.30;;;;;;;;;;5132416;27;20203;-84
2022/03/18 14:52:42;;;;;;;5.30;4.47;;;;;;;;;;5133094;27;20187;-84
2022/03/18 14:57:55;;;;;;;4.93;4.53;;;;;;;;;;5132845;28;20182;-84
2022/03/18 15:00:23;;;;;;;4.50;4.10;;;;;;;;;;5132868;27;20202;-84
2022/03/18 15:02:50;;;;;;;4.80;4.20;;;;;;;;;;5132488;27;20222;-84
2022/03/18 15:05:18;;;;;;;4.63;4.13;;;;;;;;;;5132893;27;20255;-84
2022/03/18 15:07:46;;;;;;;5.90;4.47;;;;;;;;;;5132620;27;20198;-84
2022/03/18 15:10:14;;;;;;;5.83;4.87;;;;;;;;;;5131836;27;20281;-86
2022/03/18 15:12:42;;;;;;;6.13;5.10;;;;;;;;;;5135921;27;20208;-86
2022/03/18 15:15:13;;;;;;;9.17;5.00;;;;;;;;;;5136188;27;20195;-86
2022/03/18 15:17:40;;;;;;;7.60;5.90;;;;;;;;;;5136669;27;20206;-86
2022/03/18 15:20:08;;;;;;;7.23;6.00;;;;;;;;;;5136770;27;20195;-86
2022/03/18 15:22:36;;;;;;;6.33;4.93;;;;;;;;;;5136502;27;20218;-86